sensor_id;sensor_type;location;lat;lon;timestamp;pressure;altitude;pressure_sealevel;temperature;humidity
49063;BME280;34876;51.464;-0.150;2023-05-03T00:03:30;102785.57;;;18.54;39.51
49063;BME280;34876;51.464;-0.150;2023-05-03T00:06:08;102789.38;;;18.39;39.01
49063;BME280;34876;51.464;-0.150;2023-05-03T00:08:37;102789.44;;;18.53;39.50
49063;BME280;34876;51.464;-0.150;2023-05-03T00:11:07;102789.05;;;18.58;39.47
49063;BME280;34876;51.464;-0.150;2023-05-03T00:13:36;102787.27;;;18.57;39.40
49063;BME280;34876;51.464;-0.150;2023-05-03T00:16:06;102783.77;;;18.52;39.52
49063;BME280;34876;51.464;-0.150;2023-05-03T00:18:35;102783.33;;;18.56;39.46
49063;BME280;34876;51.464;-0.150;2023-05-03T00:21:04;102784.09;;;18.50;39.49
49063;BME280;34876;51.464;-0.150;2023-05-03T00:23:33;102782.64;;;18.54;39.43
49063;BME280;34876;51.464;-0.150;2023-05-03T00:26:03;102783.97;;;18.55;39.41
49063;BME280;34876;51.464;-0.150;2023-05-03T00:28:33;102785.61;;;18.52;39.41
49063;BME280;34876;51.464;-0.150;2023-05-03T00:31:10;102785.23;;;18.54;39.46
49063;BME280;34876;51.464;-0.150;2023-05-03T00:33:39;102787.22;;;18.38;39.18
49063;BME280;34876;51.464;-0.150;2023-05-03T00:36:09;102787.86;;;18.49;39.39
49063;BME280;34876;51.464;-0.150;2023-05-03T00:38:40;102784.85;;;18.51;39.33
49063;BME280;34876;51.464;-0.150;2023-05-03T00:41:10;102783.12;;;18.55;39.27
49063;BME280;34876;51.464;-0.150;2023-05-03T00:43:39;102783.82;;;18.54;39.26
49063;BME280;34876;51.464;-0.150;2023-05-03T00:46:08;102784.85;;;18.55;39.23
49063;BME280;34876;51.464;-0.150;2023-05-03T00:48:38;102785.75;;;18.51;39.29
49063;BME280;34876;51.464;-0.150;2023-05-03T00:51:07;102783.11;;;18.51;39.28
49063;BME280;34876;51.464;-0.150;2023-05-03T00:53:39;102778.52;;;18.56;39.20
49063;BME280;34876;51.464;-0.150;2023-05-03T00:56:08;102775.21;;;18.55;39.19
49063;BME280;34876;51.464;-0.150;2023-05-03T00:58:37;102775.83;;;18.46;39.40
49063;BME280;34876;51.464;-0.150;2023-05-03T01:01:06;102776.58;;;18.33;39.63
49063;BME280;34876;51.464;-0.150;2023-05-03T01:03:37;102777.08;;;18.31;39.65
49063;BME280;34876;51.464;-0.150;2023-05-03T01:06:12;102773.60;;;18.36;39.47
49063;BME280;34876;51.464;-0.150;2023-05-03T01:08:49;102772.44;;;18.45;39.33
49063;BME280;34876;51.464;-0.150;2023-05-03T01:11:25;102771.36;;;18.19;39.65
49063;BME280;34876;51.464;-0.150;2023-05-03T01:14:00;102775.28;;;18.44;39.31
49063;BME280;34876;51.464;-0.150;2023-05-03T01:16:38;102771.76;;;18.36;39.44
49063;BME280;34876;51.464;-0.150;2023-05-03T01:19:22;102771.38;;;18.30;39.54
49063;BME280;34876;51.464;-0.150;2023-05-03T01:21:58;102770.98;;;18.38;39.39
49063;BME280;34876;51.464;-0.150;2023-05-03T01:24:31;102768.64;;;18.45;39.20
49063;BME280;34876;51.464;-0.150;2023-05-03T01:27:02;102764.20;;;18.41;39.07
49063;BME280;34876;51.464;-0.150;2023-05-03T01:29:31;102755.33;;;18.48;39.15
49063;BME280;34876;51.464;-0.150;2023-05-03T01:32:03;102753.68;;;18.47;39.11
49063;BME280;34876;51.464;-0.150;2023-05-03T01:34:41;102753.14;;;18.46;39.11
49063;BME280;34876;51.464;-0.150;2023-05-03T01:37:14;102753.08;;;18.46;39.09
49063;BME280;34876;51.464;-0.150;2023-05-03T01:39:48;102758.85;;;18.39;39.26
49063;BME280;34876;51.464;-0.150;2023-05-03T01:42:20;102755.57;;;18.34;39.34
49063;BME280;34876;51.464;-0.150;2023-05-03T01:44:52;102753.27;;;18.41;39.20
49063;BME280;34876;51.464;-0.150;2023-05-03T01:47:21;102753.53;;;18.34;39.28
49063;BME280;34876;51.464;-0.150;2023-05-03T01:49:50;102753.04;;;18.32;39.38
49063;BME280;34876;51.464;-0.150;2023-05-03T01:52:19;102746.47;;;18.39;39.18
49063;BME280;34876;51.464;-0.150;2023-05-03T01:54:48;102747.98;;;18.37;39.21
49063;BME280;34876;51.464;-0.150;2023-05-03T01:57:17;102745.20;;;18.41;39.11
49063;BME280;34876;51.464;-0.150;2023-05-03T01:59:46;102745.52;;;18.44;39.05
49063;BME280;34876;51.464;-0.150;2023-05-03T02:02:15;102747.06;;;18.43;39.04
49063;BME280;34876;51.464;-0.150;2023-05-03T02:04:44;102747.04;;;18.44;39.01
49063;BME280;34876;51.464;-0.150;2023-05-03T02:07:13;102747.73;;;18.40;39.09
49063;BME280;34876;51.464;-0.150;2023-05-03T02:09:42;102750.42;;;18.19;39.41
49063;BME280;34876;51.464;-0.150;2023-05-03T02:12:13;102750.15;;;18.14;39.54
49063;BME280;34876;51.464;-0.150;2023-05-03T02:14:42;102752.84;;;18.28;39.29
49063;BME280;34876;51.464;-0.150;2023-05-03T02:17:11;102754.46;;;17.91;39.92
49063;BME280;34876;51.464;-0.150;2023-05-03T02:19:40;102757.41;;;18.27;39.27
49063;BME280;34876;51.464;-0.150;2023-05-03T02:22:09;102760.81;;;18.35;39.15
49063;BME280;34876;51.464;-0.150;2023-05-03T02:24:38;102760.01;;;18.38;39.10
49063;BME280;34876;51.464;-0.150;2023-05-03T02:27:07;102763.13;;;18.38;39.04
49063;BME280;34876;51.464;-0.150;2023-05-03T02:29:36;102763.27;;;18.33;39.07
49063;BME280;34876;51.464;-0.150;2023-05-03T02:32:05;102761.61;;;18.39;39.04
49063;BME280;34876;51.464;-0.150;2023-05-03T02:34:34;102761.92;;;18.23;38.76
49063;BME280;34876;51.464;-0.150;2023-05-03T02:37:04;102759.79;;;18.37;39.04
49063;BME280;34876;51.464;-0.150;2023-05-03T02:39:33;102755.61;;;18.37;39.08
49063;BME280;34876;51.464;-0.150;2023-05-03T02:42:02;102756.24;;;18.38;39.01
49063;BME280;34876;51.464;-0.150;2023-05-03T02:44:30;102752.40;;;18.42;38.93
49063;BME280;34876;51.464;-0.150;2023-05-03T02:46:59;102748.27;;;18.41;38.91
49063;BME280;34876;51.464;-0.150;2023-05-03T02:49:28;102747.62;;;18.43;38.86
49063;BME280;34876;51.464;-0.150;2023-05-03T02:51:57;102745.99;;;18.43;38.87
49063;BME280;34876;51.464;-0.150;2023-05-03T02:54:27;102746.88;;;18.41;38.94
49063;BME280;34876;51.464;-0.150;2023-05-03T02:56:56;102745.80;;;18.42;38.87
49063;BME280;34876;51.464;-0.150;2023-05-03T02:59:25;102748.24;;;18.40;38.89
49063;BME280;34876;51.464;-0.150;2023-05-03T03:01:54;102744.86;;;18.41;38.91
49063;BME280;34876;51.464;-0.150;2023-05-03T03:04:24;102739.20;;;18.39;38.98
49063;BME280;34876;51.464;-0.150;2023-05-03T03:06:53;102735.61;;;18.39;38.98
49063;BME280;34876;51.464;-0.150;2023-05-03T03:09:23;102735.33;;;18.41;38.92
49063;BME280;34876;51.464;-0.150;2023-05-03T03:11:52;102737.52;;;18.41;38.86
49063;BME280;34876;51.464;-0.150;2023-05-03T03:14:21;102733.95;;;18.43;38.88
49063;BME280;34876;51.464;-0.150;2023-05-03T03:16:51;102733.97;;;18.40;38.89
49063;BME280;34876;51.464;-0.150;2023-05-03T03:19:20;102734.64;;;18.40;38.87
49063;BME280;34876;51.464;-0.150;2023-05-03T03:21:49;102733.03;;;18.39;38.91
49063;BME280;34876;51.464;-0.150;2023-05-03T03:24:18;102728.47;;;18.35;38.99
49063;BME280;34876;51.464;-0.150;2023-05-03T03:26:47;102726.73;;;18.40;38.86
49063;BME280;34876;51.464;-0.150;2023-05-03T03:29:16;102720.24;;;18.42;38.83
49063;BME280;34876;51.464;-0.150;2023-05-03T03:31:45;102716.43;;;18.35;38.94
49063;BME280;34876;51.464;-0.150;2023-05-03T03:34:13;102715.36;;;18.40;38.92
49063;BME280;34876;51.464;-0.150;2023-05-03T03:36:43;102712.28;;;18.40;38.86
49063;BME280;34876;51.464;-0.150;2023-05-03T03:39:12;102707.31;;;18.40;38.90
49063;BME280;34876;51.464;-0.150;2023-05-03T03:41:41;102703.00;;;18.39;38.86
49063;BME280;34876;51.464;-0.150;2023-05-03T03:44:10;102705.25;;;18.37;38.93
49063;BME280;34876;51.464;-0.150;2023-05-03T03:46:38;102695.89;;;18.39;38.87
49063;BME280;34876;51.464;-0.150;2023-05-03T03:49:07;102691.88;;;18.40;38.85
49063;BME280;34876;51.464;-0.150;2023-05-03T03:51:36;102692.12;;;18.33;38.76
49063;BME280;34876;51.464;-0.150;2023-05-03T03:54:06;102689.97;;;18.38;38.88
49063;BME280;34876;51.464;-0.150;2023-05-03T03:56:35;102687.90;;;18.38;38.94
49063;BME280;34876;51.464;-0.150;2023-05-03T03:59:04;102688.74;;;18.41;38.91
49063;BME280;34876;51.464;-0.150;2023-05-03T04:01:32;102685.94;;;18.38;38.94
49063;BME280;34876;51.464;-0.150;2023-05-03T04:04:02;102685.16;;;18.38;38.94
49063;BME280;34876;51.464;-0.150;2023-05-03T04:06:31;102678.75;;;18.37;38.95
49063;BME280;34876;51.464;-0.150;2023-05-03T04:09:01;102675.07;;;18.38;39.01
49063;BME280;34876;51.464;-0.150;2023-05-03T04:11:30;102674.52;;;18.34;39.05
49063;BME280;34876;51.464;-0.150;2023-05-03T04:13:59;102672.48;;;18.37;39.00
49063;BME280;34876;51.464;-0.150;2023-05-03T04:16:28;102669.38;;;18.33;38.88
49063;BME280;34876;51.464;-0.150;2023-05-03T04:18:57;102666.70;;;18.35;39.04
49063;BME280;34876;51.464;-0.150;2023-05-03T04:21:26;102666.11;;;18.39;38.98
49063;BME280;34876;51.464;-0.150;2023-05-03T04:23:55;102666.99;;;18.39;38.99
49063;BME280;34876;51.464;-0.150;2023-05-03T04:26:23;102667.74;;;18.38;39.01
49063;BME280;34876;51.464;-0.150;2023-05-03T04:28:52;102664.60;;;18.39;38.99
49063;BME280;34876;51.464;-0.150;2023-05-03T04:31:21;102665.04;;;18.39;39.04
49063;BME280;34876;51.464;-0.150;2023-05-03T04:33:51;102669.56;;;18.37;39.05
49063;BME280;34876;51.464;-0.150;2023-05-03T04:36:20;102670.28;;;18.37;39.03
49063;BME280;34876;51.464;-0.150;2023-05-03T04:38:48;102668.12;;;18.36;39.07
49063;BME280;34876;51.464;-0.150;2023-05-03T04:41:17;102668.50;;;18.37;39.13
49063;BME280;34876;51.464;-0.150;2023-05-03T04:43:46;102673.05;;;18.39;39.06
49063;BME280;34876;51.464;-0.150;2023-05-03T04:46:15;102674.56;;;18.39;38.98
49063;BME280;34876;51.464;-0.150;2023-05-03T04:48:44;102668.95;;;18.37;39.08
49063;BME280;34876;51.464;-0.150;2023-05-03T04:51:13;102667.85;;;18.40;38.94
49063;BME280;34876;51.464;-0.150;2023-05-03T04:53:42;102668.20;;;18.40;38.94
49063;BME280;34876;51.464;-0.150;2023-05-03T04:56:10;102669.87;;;18.38;39.01
49063;BME280;34876;51.464;-0.150;2023-05-03T04:58:39;102670.29;;;18.37;39.09
49063;BME280;34876;51.464;-0.150;2023-05-03T05:01:09;102672.11;;;18.38;39.01
49063;BME280;34876;51.464;-0.150;2023-05-03T05:03:37;102677.71;;;18.36;39.09
49063;BME280;34876;51.464;-0.150;2023-05-03T05:06:07;102682.56;;;18.37;39.06
49063;BME280;34876;51.464;-0.150;2023-05-03T05:08:36;102683.70;;;18.34;39.10
49063;BME280;34876;51.464;-0.150;2023-05-03T05:11:05;102683.89;;;18.38;39.04
49063;BME280;34876;51.464;-0.150;2023-05-03T05:13:34;102684.61;;;18.36;39.07
49063;BME280;34876;51.464;-0.150;2023-05-03T05:16:04;102687.85;;;18.38;39.03
49063;BME280;34876;51.464;-0.150;2023-05-03T05:18:33;102688.86;;;18.38;38.95
49063;BME280;34876;51.464;-0.150;2023-05-03T05:21:02;102688.66;;;18.40;39.01
49063;BME280;34876;51.464;-0.150;2023-05-03T05:23:31;102690.89;;;18.33;39.08
49063;BME280;34876;51.464;-0.150;2023-05-03T05:26:00;102694.27;;;18.39;39.04
49063;BME280;34876;51.464;-0.150;2023-05-03T05:28:30;102692.12;;;18.40;39.00
49063;BME280;34876;51.464;-0.150;2023-05-03T05:30:59;102696.46;;;18.30;39.22
49063;BME280;34876;51.464;-0.150;2023-05-03T05:33:28;102700.25;;;18.37;39.01
49063;BME280;34876;51.464;-0.150;2023-05-03T05:35:57;102700.64;;;18.37;39.01
49063;BME280;34876;51.464;-0.150;2023-05-03T05:38:26;102700.02;;;18.38;39.05
49063;BME280;34876;51.464;-0.150;2023-05-03T05:40:55;102704.30;;;18.37;39.01
49063;BME280;34876;51.464;-0.150;2023-05-03T05:43:24;102707.12;;;18.29;39.18
49063;BME280;34876;51.464;-0.150;2023-05-03T05:45:53;102708.31;;;18.49;38.62
49063;BME280;34876;51.464;-0.150;2023-05-03T05:48:22;102708.31;;;18.53;38.67
49063;BME280;34876;51.464;-0.150;2023-05-03T05:50:51;102711.00;;;18.58;38.62
49063;BME280;34876;51.464;-0.150;2023-05-03T05:53:21;102711.67;;;18.51;38.70
49063;BME280;34876;51.464;-0.150;2023-05-03T05:55:50;102709.41;;;18.45;38.87
49063;BME280;34876;51.464;-0.150;2023-05-03T05:58:19;102713.37;;;18.51;38.78
49063;BME280;34876;51.464;-0.150;2023-05-03T06:00:49;102711.21;;;18.50;38.76
49063;BME280;34876;51.464;-0.150;2023-05-03T06:03:18;102713.15;;;18.53;38.74
49063;BME280;34876;51.464;-0.150;2023-05-03T06:05:47;102721.21;;;18.06;39.66
49063;BME280;34876;51.464;-0.150;2023-05-03T06:08:16;102716.25;;;18.31;39.14
49063;BME280;34876;51.464;-0.150;2023-05-03T06:10:46;102721.46;;;18.03;39.38
49063;BME280;34876;51.464;-0.150;2023-05-03T06:13:16;102719.06;;;17.53;40.58
49063;BME280;34876;51.464;-0.150;2023-05-03T06:15:45;102722.98;;;17.92;39.99
49063;BME280;34876;51.464;-0.150;2023-05-03T06:18:14;102725.57;;;17.58;40.46
49063;BME280;34876;51.464;-0.150;2023-05-03T06:20:43;102724.14;;;18.05;39.72
49063;BME280;34876;51.464;-0.150;2023-05-03T06:23:12;102725.50;;;18.17;39.47
49063;BME280;34876;51.464;-0.150;2023-05-03T06:25:41;102722.70;;;18.54;38.74
49063;BME280;34876;51.464;-0.150;2023-05-03T06:28:13;102724.06;;;18.73;38.32
49063;BME280;34876;51.464;-0.150;2023-05-03T06:30:47;102720.78;;;18.93;37.87
49063;BME280;34876;51.464;-0.150;2023-05-03T06:33:18;102720.70;;;19.37;36.77
49063;BME280;34876;51.464;-0.150;2023-05-03T06:35:47;102715.69;;;19.75;36.13
49063;BME280;34876;51.464;-0.150;2023-05-03T06:38:16;102717.11;;;19.54;36.35
49063;BME280;34876;51.464;-0.150;2023-05-03T06:40:46;102713.46;;;19.35;36.94
49063;BME280;34876;51.464;-0.150;2023-05-03T06:43:17;102710.47;;;19.84;35.89
49063;BME280;34876;51.464;-0.150;2023-05-03T06:45:47;102711.84;;;19.46;36.60
49063;BME280;34876;51.464;-0.150;2023-05-03T06:48:16;102711.12;;;19.63;36.35
49063;BME280;34876;51.464;-0.150;2023-05-03T06:50:45;102709.47;;;19.81;35.14
49063;BME280;34876;51.464;-0.150;2023-05-03T06:53:14;102708.43;;;20.05;35.53
49063;BME280;34876;51.464;-0.150;2023-05-03T06:55:43;102706.31;;;19.32;36.15
49063;BME280;34876;51.464;-0.150;2023-05-03T06:58:13;102706.63;;;18.47;38.28
49063;BME280;34876;51.464;-0.150;2023-05-03T07:00:41;102703.91;;;19.14;37.41
49063;BME280;34876;51.464;-0.150;2023-05-03T07:03:11;102699.35;;;19.12;37.40
49063;BME280;34876;51.464;-0.150;2023-05-03T07:05:39;102697.40;;;18.16;38.83
49063;BME280;34876;51.464;-0.150;2023-05-03T07:08:10;102697.41;;;18.37;38.89
49063;BME280;34876;51.464;-0.150;2023-05-03T07:10:39;102693.84;;;18.34;39.13
49063;BME280;34876;51.464;-0.150;2023-05-03T07:13:08;102691.44;;;17.15;41.20
49063;BME280;34876;51.464;-0.150;2023-05-03T07:15:37;102686.23;;;17.56;40.92
49063;BME280;34876;51.464;-0.150;2023-05-03T07:18:07;102680.48;;;18.48;39.00
49063;BME280;34876;51.464;-0.150;2023-05-03T07:20:36;102684.51;;;17.93;40.18
49063;BME280;34876;51.464;-0.150;2023-05-03T07:23:05;102687.06;;;16.49;42.26
49063;BME280;34876;51.464;-0.150;2023-05-03T07:25:34;102685.22;;;17.40;41.36
49063;BME280;34876;51.464;-0.150;2023-05-03T07:28:04;102687.38;;;17.02;41.33
49063;BME280;34876;51.464;-0.150;2023-05-03T07:30:33;102688.13;;;17.01;41.82
49063;BME280;34876;51.464;-0.150;2023-05-03T07:33:02;102689.53;;;17.51;40.97
49063;BME280;34876;51.464;-0.150;2023-05-03T07:35:31;102690.88;;;17.58;40.86
49063;BME280;34876;51.464;-0.150;2023-05-03T07:38:00;102695.62;;;18.06;39.63
49063;BME280;34876;51.464;-0.150;2023-05-03T07:40:29;102694.59;;;17.75;40.52
49063;BME280;34876;51.464;-0.150;2023-05-03T07:42:59;102698.34;;;17.16;41.71
49063;BME280;34876;51.464;-0.150;2023-05-03T07:45:28;102689.43;;;17.29;41.61
49063;BME280;34876;51.464;-0.150;2023-05-03T07:47:57;102689.18;;;16.55;42.39
49063;BME280;34876;51.464;-0.150;2023-05-03T07:50:26;102691.61;;;17.06;41.90
49063;BME280;34876;51.464;-0.150;2023-05-03T07:52:55;102695.44;;;17.07;41.25
49063;BME280;34876;51.464;-0.150;2023-05-03T07:55:25;102689.13;;;17.75;40.76
49063;BME280;34876;51.464;-0.150;2023-05-03T07:57:54;102698.04;;;16.19;42.71
49063;BME280;34876;51.464;-0.150;2023-05-03T08:00:23;102690.28;;;17.39;41.44
49063;BME280;34876;51.464;-0.150;2023-05-03T08:02:52;102701.09;;;15.86;44.01
49063;BME280;34876;51.464;-0.150;2023-05-03T08:05:21;102691.18;;;16.43;43.49
49063;BME280;34876;51.464;-0.150;2023-05-03T08:07:50;102686.65;;;17.67;40.18
49063;BME280;34876;51.464;-0.150;2023-05-03T08:10:20;102686.58;;;17.83;40.53
49063;BME280;34876;51.464;-0.150;2023-05-03T08:12:49;102689.71;;;17.40;40.52
49063;BME280;34876;51.464;-0.150;2023-05-03T08:15:18;102687.11;;;17.21;41.36
49063;BME280;34876;51.464;-0.150;2023-05-03T08:17:51;102684.55;;;16.92;42.01
49063;BME280;34876;51.464;-0.150;2023-05-03T08:20:23;102678.09;;;17.70;40.85
49063;BME280;34876;51.464;-0.150;2023-05-03T08:22:54;102678.90;;;17.84;39.58
49063;BME280;34876;51.464;-0.150;2023-05-03T08:25:23;102682.67;;;16.97;41.98
49063;BME280;34876;51.464;-0.150;2023-05-03T08:27:53;102685.53;;;16.99;41.90
49063;BME280;34876;51.464;-0.150;2023-05-03T08:30:22;102679.72;;;17.54;40.65
49063;BME280;34876;51.464;-0.150;2023-05-03T08:32:51;102673.41;;;17.46;40.97
49063;BME280;34876;51.464;-0.150;2023-05-03T08:35:20;102676.97;;;16.91;41.49
49063;BME280;34876;51.464;-0.150;2023-05-03T08:37:48;102674.31;;;17.18;41.96
49063;BME280;34876;51.464;-0.150;2023-05-03T08:40:20;102667.08;;;17.54;40.94
49063;BME280;34876;51.464;-0.150;2023-05-03T08:42:49;102673.84;;;17.62;41.02
49063;BME280;34876;51.464;-0.150;2023-05-03T08:45:18;102675.56;;;17.23;41.23
49063;BME280;34876;51.464;-0.150;2023-05-03T08:47:52;102678.96;;;16.58;42.03
49063;BME280;34876;51.464;-0.150;2023-05-03T08:50:22;102674.67;;;16.77;42.78
49063;BME280;34876;51.464;-0.150;2023-05-03T08:52:51;102681.94;;;16.31;42.15
49063;BME280;34876;51.464;-0.150;2023-05-03T08:55:21;102676.37;;;17.02;42.38
49063;BME280;34876;51.464;-0.150;2023-05-03T08:57:49;102675.78;;;16.28;42.87
49063;BME280;34876;51.464;-0.150;2023-05-03T09:00:19;102674.27;;;16.77;40.99
49063;BME280;34876;51.464;-0.150;2023-05-03T09:02:55;102676.19;;;16.51;41.72
49063;BME280;34876;51.464;-0.150;2023-05-03T09:05:32;102675.38;;;17.10;40.21
49063;BME280;34876;51.464;-0.150;2023-05-03T09:08:04;102671.48;;;17.65;40.45
49063;BME280;34876;51.464;-0.150;2023-05-03T09:10:36;102667.91;;;17.97;38.51
49063;BME280;34876;51.464;-0.150;2023-05-03T09:13:06;102663.90;;;18.57;37.62
49063;BME280;34876;51.464;-0.150;2023-05-03T09:15:36;102667.31;;;18.70;37.36
49063;BME280;34876;51.464;-0.150;2023-05-03T09:18:07;102658.15;;;19.16;37.36
49063;BME280;34876;51.464;-0.150;2023-05-03T09:20:38;102661.57;;;18.62;37.04
49063;BME280;34876;51.464;-0.150;2023-05-03T09:23:08;102658.13;;;18.53;38.22
49063;BME280;34876;51.464;-0.150;2023-05-03T09:25:42;102660.02;;;18.35;37.89
49063;BME280;34876;51.464;-0.150;2023-05-03T09:28:11;102664.63;;;17.69;39.06
49063;BME280;34876;51.464;-0.150;2023-05-03T09:30:41;102660.64;;;17.89;38.53
49063;BME280;34876;51.464;-0.150;2023-05-03T09:33:11;102657.68;;;17.52;40.28
49063;BME280;34876;51.464;-0.150;2023-05-03T09:35:54;102658.49;;;18.32;38.13
49063;BME280;34876;51.464;-0.150;2023-05-03T09:38:28;102660.13;;;18.53;37.36
49063;BME280;34876;51.464;-0.150;2023-05-03T09:40:58;102657.24;;;18.54;38.64
49063;BME280;34876;51.464;-0.150;2023-05-03T09:43:28;102661.27;;;18.69;37.34
49063;BME280;34876;51.464;-0.150;2023-05-03T09:46:07;102656.95;;;18.78;37.03
49063;BME280;34876;51.464;-0.150;2023-05-03T09:48:40;102655.91;;;18.83;37.74
49063;BME280;34876;51.464;-0.150;2023-05-03T09:51:10;102651.42;;;18.43;38.56
49063;BME280;34876;51.464;-0.150;2023-05-03T09:53:39;102648.46;;;18.89;37.82
49063;BME280;34876;51.464;-0.150;2023-05-03T09:56:10;102645.76;;;19.25;36.97
49063;BME280;34876;51.464;-0.150;2023-05-03T09:58:41;102648.35;;;19.15;36.08
49063;BME280;34876;51.464;-0.150;2023-05-03T10:01:10;102656.10;;;19.07;36.79
49063;BME280;34876;51.464;-0.150;2023-05-03T10:03:43;102650.20;;;18.62;38.40
49063;BME280;34876;51.464;-0.150;2023-05-03T10:06:21;102652.04;;;17.61;39.02
49063;BME280;34876;51.464;-0.150;2023-05-03T10:08:54;102648.08;;;18.09;38.56
49063;BME280;34876;51.464;-0.150;2023-05-03T10:11:29;102649.72;;;17.87;40.06
49063;BME280;34876;51.464;-0.150;2023-05-03T10:13:58;102645.02;;;18.72;38.37
49063;BME280;34876;51.464;-0.150;2023-05-03T10:16:29;102643.80;;;18.67;37.57
49063;BME280;34876;51.464;-0.150;2023-05-03T10:19:07;102651.80;;;18.37;38.71
49063;BME280;34876;51.464;-0.150;2023-05-03T10:21:53;102654.50;;;17.64;38.91
49063;BME280;34876;51.464;-0.150;2023-05-03T10:24:23;102650.25;;;16.97;40.54
49063;BME280;34876;51.464;-0.150;2023-05-03T10:26:55;102635.21;;;17.40;40.22
49063;BME280;34876;51.464;-0.150;2023-05-03T10:29:56;102641.13;;;17.41;41.13
49063;BME280;34876;51.464;-0.150;2023-05-03T10:32:33;102634.45;;;16.61;42.74
49063;BME280;34876;51.464;-0.150;2023-05-03T10:35:06;102637.54;;;17.18;41.26
49063;BME280;34876;51.464;-0.150;2023-05-03T10:37:36;102631.35;;;17.88;39.30
49063;BME280;34876;51.464;-0.150;2023-05-03T10:40:09;102628.32;;;17.97;38.86
49063;BME280;34876;51.464;-0.150;2023-05-03T10:42:44;102628.25;;;17.59;39.77
49063;BME280;34876;51.464;-0.150;2023-05-03T10:45:23;102624.86;;;17.35;40.67
49063;BME280;34876;51.464;-0.150;2023-05-03T10:48:26;102620.26;;;17.54;40.66
49063;BME280;34876;51.464;-0.150;2023-05-03T10:50:56;102617.74;;;17.21;40.58
49063;BME280;34876;51.464;-0.150;2023-05-03T10:53:40;102613.71;;;16.85;41.84
49063;BME280;34876;51.464;-0.150;2023-05-03T10:56:10;102607.50;;;17.54;40.93
49063;BME280;34876;51.464;-0.150;2023-05-03T10:58:42;102608.92;;;17.49;40.98
49063;BME280;34876;51.464;-0.150;2023-05-03T11:01:13;102619.56;;;16.94;40.47
49063;BME280;34876;51.464;-0.150;2023-05-03T11:03:48;102606.61;;;17.10;41.90
49063;BME280;34876;51.464;-0.150;2023-05-03T11:06:35;102600.07;;;17.76;39.17
49063;BME280;34876;51.464;-0.150;2023-05-03T11:09:06;102599.93;;;17.45;39.99
49063;BME280;34876;51.464;-0.150;2023-05-03T11:11:38;102598.44;;;16.66;42.02
49063;BME280;34876;51.464;-0.150;2023-05-03T11:14:09;102599.29;;;16.71;41.25
49063;BME280;34876;51.464;-0.150;2023-05-03T11:16:39;102599.81;;;16.37;41.82
49063;BME280;34876;51.464;-0.150;2023-05-03T11:19:09;102592.35;;;16.20;43.06
49063;BME280;34876;51.464;-0.150;2023-05-03T11:21:38;102592.04;;;16.68;41.22
49063;BME280;34876;51.464;-0.150;2023-05-03T11:24:08;102587.41;;;17.17;41.32
49063;BME280;34876;51.464;-0.150;2023-05-03T11:26:38;102584.61;;;16.87;41.44
49063;BME280;34876;51.464;-0.150;2023-05-03T11:29:08;102586.19;;;16.81;42.26
49063;BME280;34876;51.464;-0.150;2023-05-03T11:31:37;102585.21;;;16.85;40.48
49063;BME280;34876;51.464;-0.150;2023-05-03T11:34:06;102564.87;;;17.52;40.78
49063;BME280;34876;51.464;-0.150;2023-05-03T11:36:35;102578.61;;;16.99;41.50
49063;BME280;34876;51.464;-0.150;2023-05-03T11:39:04;102567.85;;;17.29;39.74
49063;BME280;34876;51.464;-0.150;2023-05-03T11:41:34;102570.02;;;17.07;41.74
49063;BME280;34876;51.464;-0.150;2023-05-03T11:44:03;102560.68;;;17.61;39.82
49063;BME280;34876;51.464;-0.150;2023-05-03T11:46:36;102558.19;;;17.21;40.75
49063;BME280;34876;51.464;-0.150;2023-05-03T11:49:06;102562.26;;;17.27;39.62
49063;BME280;34876;51.464;-0.150;2023-05-03T11:51:36;102552.33;;;17.08;40.23
49063;BME280;34876;51.464;-0.150;2023-05-03T11:54:06;102555.20;;;17.12;39.80
49063;BME280;34876;51.464;-0.150;2023-05-03T11:56:36;102547.66;;;17.29;41.25
49063;BME280;34876;51.464;-0.150;2023-05-03T11:59:05;102534.73;;;17.20;40.95
49063;BME280;34876;51.464;-0.150;2023-05-03T12:01:34;102534.30;;;17.41;40.72
49063;BME280;34876;51.464;-0.150;2023-05-03T12:04:04;102529.66;;;16.78;41.83
49063;BME280;34876;51.464;-0.150;2023-05-03T12:06:34;102528.71;;;16.50;42.32
49063;BME280;34876;51.464;-0.150;2023-05-03T12:09:13;102518.06;;;16.79;41.59
49063;BME280;34876;51.464;-0.150;2023-05-03T12:11:42;102510.31;;;17.32;40.89
49063;BME280;34876;51.464;-0.150;2023-05-03T12:14:11;102507.20;;;17.38;40.91
49063;BME280;34876;51.464;-0.150;2023-05-03T12:16:46;102514.06;;;16.94;39.97
49063;BME280;34876;51.464;-0.150;2023-05-03T12:19:23;102508.78;;;16.35;41.28
49063;BME280;34876;51.464;-0.150;2023-05-03T12:21:53;102506.68;;;17.02;39.80
49063;BME280;34876;51.464;-0.150;2023-05-03T12:24:22;102503.80;;;16.72;40.46
49063;BME280;34876;51.464;-0.150;2023-05-03T12:26:52;102501.47;;;16.20;42.69
49063;BME280;34876;51.464;-0.150;2023-05-03T12:29:21;102498.95;;;16.63;39.80
49063;BME280;34876;51.464;-0.150;2023-05-03T12:31:50;102489.52;;;16.41;40.62
49063;BME280;34876;51.464;-0.150;2023-05-03T12:34:21;102490.98;;;16.63;41.11
49063;BME280;34876;51.464;-0.150;2023-05-03T12:36:50;102491.62;;;16.83;40.25
49063;BME280;34876;51.464;-0.150;2023-05-03T12:39:20;102488.82;;;17.47;40.80
49063;BME280;34876;51.464;-0.150;2023-05-03T12:41:49;102488.13;;;16.79;40.87
49063;BME280;34876;51.464;-0.150;2023-05-03T12:44:18;102500.75;;;16.14;40.25
49063;BME280;34876;51.464;-0.150;2023-05-03T12:46:48;102493.03;;;16.63;40.23
49063;BME280;34876;51.464;-0.150;2023-05-03T12:49:20;102474.99;;;17.63;39.38
49063;BME280;34876;51.464;-0.150;2023-05-03T12:51:49;102479.96;;;16.79;38.81
49063;BME280;34876;51.464;-0.150;2023-05-03T12:54:18;102480.87;;;16.91;38.40
49063;BME280;34876;51.464;-0.150;2023-05-03T12:56:48;102472.36;;;17.42;40.54
49063;BME280;34876;51.464;-0.150;2023-05-03T12:59:18;102479.50;;;17.37;37.92